sensor_id;sensor_type;location;lat;lon;timestamp;temperature;humidity
37984;DHT22;61733;50.882;4.376;2022-07-23T00:00:54;17.80;99.90
37984;DHT22;61733;50.882;4.376;2022-07-23T00:03:19;17.70;99.90
37984;DHT22;61733;50.882;4.376;2022-07-23T00:05:45;17.70;99.90
37984;DHT22;61733;50.882;4.376;2022-07-23T00:08:11;17.70;99.90
37984;DHT22;61733;50.882;4.376;2022-07-23T00:10:37;17.70;99.90
37984;DHT22;61733;50.882;4.376;2022-07-23T00:13:03;17.70;99.90
37984;DHT22;61733;50.882;4.376;2022-07-23T00:15:30;17.70;99.90
37984;DHT22;61733;50.882;4.376;2022-07-23T00:17:55;17.70;99.90
37984;DHT22;61733;50.882;4.376;2022-07-23T00:20:22;17.70;99.90
37984;DHT22;61733;50.882;4.376;2022-07-23T00:22:50;17.60;99.90
37984;DHT22;61733;50.882;4.376;2022-07-23T00:25:18;17.60;99.90
37984;DHT22;61733;50.882;4.376;2022-07-23T00:27:44;17.60;99.90
37984;DHT22;61733;50.882;4.376;2022-07-23T00:30:10;17.60;99.90
37984;DHT22;61733;50.882;4.376;2022-07-23T00:32:56;17.50;99.90
37984;DHT22;61733;50.882;4.376;2022-07-23T00:35:27;17.50;99.90
37984;DHT22;61733;50.882;4.376;2022-07-23T00:37:54;17.50;99.90
37984;DHT22;61733;50.882;4.376;2022-07-23T00:40:21;17.40;99.90
37984;DHT22;61733;50.882;4.376;2022-07-23T00:42:47;17.40;99.90
37984;DHT22;61733;50.882;4.376;2022-07-23T00:45:13;17.30;99.90
37984;DHT22;61733;50.882;4.376;2022-07-23T00:47:39;17.30;99.90
37984;DHT22;61733;50.882;4.376;2022-07-23T00:50:06;17.30;99.90
37984;DHT22;61733;50.882;4.376;2022-07-23T00:52:33;17.30;99.90
37984;DHT22;61733;50.882;4.376;2022-07-23T00:54:59;17.30;99.90
37984;DHT22;61733;50.882;4.376;2022-07-23T00:57:25;17.30;99.90
37984;DHT22;61733;50.882;4.376;2022-07-23T00:59:51;17.30;99.90
37984;DHT22;61733;50.882;4.376;2022-07-23T01:02:16;17.30;99.90
37984;DHT22;61733;50.882;4.376;2022-07-23T01:04:42;17.30;99.90
37984;DHT22;61733;50.882;4.376;2022-07-23T01:07:08;17.20;99.90
37984;DHT22;61733;50.882;4.376;2022-07-23T01:09:34;17.30;99.90
37984;DHT22;61733;50.882;4.376;2022-07-23T01:12:01;17.20;99.90
37984;DHT22;61733;50.882;4.376;2022-07-23T01:14:26;17.20;99.90
37984;DHT22;61733;50.882;4.376;2022-07-23T01:16:52;17.20;99.90
37984;DHT22;61733;50.882;4.376;2022-07-23T01:19:19;17.20;99.90
37984;DHT22;61733;50.882;4.376;2022-07-23T01:21:47;17.20;99.90
37984;DHT22;61733;50.882;4.376;2022-07-23T01:24:14;17.20;99.90
37984;DHT22;61733;50.882;4.376;2022-07-23T01:26:46;17.20;99.90
37984;DHT22;61733;50.882;4.376;2022-07-23T01:29:11;17.20;99.90
37984;DHT22;61733;50.882;4.376;2022-07-23T01:31:37;17.20;99.90
37984;DHT22;61733;50.882;4.376;2022-07-23T01:34:03;17.10;99.90
37984;DHT22;61733;50.882;4.376;2022-07-23T01:36:30;17.10;99.90
37984;DHT22;61733;50.882;4.376;2022-07-23T01:38:56;17.10;99.90
37984;DHT22;61733;50.882;4.376;2022-07-23T01:41:22;17.10;99.90
37984;DHT22;61733;50.882;4.376;2022-07-23T01:43:48;17.10;99.90
37984;DHT22;61733;50.882;4.376;2022-07-23T01:46:13;17.10;99.90
37984;DHT22;61733;50.882;4.376;2022-07-23T01:48:39;17.10;99.90
37984;DHT22;61733;50.882;4.376;2022-07-23T01:51:06;17.00;99.90
37984;DHT22;61733;50.882;4.376;2022-07-23T01:53:32;17.00;99.90
37984;DHT22;61733;50.882;4.376;2022-07-23T01:55:58;17.00;99.90
37984;DHT22;61733;50.882;4.376;2022-07-23T01:58:25;17.00;99.90
37984;DHT22;61733;50.882;4.376;2022-07-23T02:00:51;16.90;99.90
37984;DHT22;61733;50.882;4.376;2022-07-23T02:03:17;16.90;99.90
37984;DHT22;61733;50.882;4.376;2022-07-23T02:05:43;16.90;99.90
37984;DHT22;61733;50.882;4.376;2022-07-23T02:08:08;16.90;99.90
37984;DHT22;61733;50.882;4.376;2022-07-23T02:10:34;16.90;99.90
37984;DHT22;61733;50.882;4.376;2022-07-23T02:13:00;16.90;99.90
37984;DHT22;61733;50.882;4.376;2022-07-23T02:15:26;16.80;99.90
37984;DHT22;61733;50.882;4.376;2022-07-23T02:17:52;16.80;99.90
37984;DHT22;61733;50.882;4.376;2022-07-23T02:20:18;16.80;99.90
37984;DHT22;61733;50.882;4.376;2022-07-23T02:22:44;16.70;99.90
37984;DHT22;61733;50.882;4.376;2022-07-23T02:25:10;16.70;99.90
37984;DHT22;61733;50.882;4.376;2022-07-23T02:27:36;16.70;99.90
37984;DHT22;61733;50.882;4.376;2022-07-23T02:30:03;16.70;99.90
37984;DHT22;61733;50.882;4.376;2022-07-23T02:32:29;16.70;99.90
37984;DHT22;61733;50.882;4.376;2022-07-23T02:34:54;16.70;99.90
37984;DHT22;61733;50.882;4.376;2022-07-23T02:37:21;16.70;99.90
37984;DHT22;61733;50.882;4.376;2022-07-23T02:39:46;16.70;99.90
37984;DHT22;61733;50.882;4.376;2022-07-23T02:42:14;16.70;99.90
37984;DHT22;61733;50.882;4.376;2022-07-23T02:44:40;16.60;99.90
37984;DHT22;61733;50.882;4.376;2022-07-23T02:47:06;16.60;99.90
37984;DHT22;61733;50.882;4.376;2022-07-23T02:49:32;16.60;99.90
37984;DHT22;61733;50.882;4.376;2022-07-23T02:51:58;16.60;99.90
37984;DHT22;61733;50.882;4.376;2022-07-23T02:54:24;16.50;99.90
37984;DHT22;61733;50.882;4.376;2022-07-23T02:56:49;16.50;99.90
37984;DHT22;61733;50.882;4.376;2022-07-23T02:59:18;16.50;99.90
37984;DHT22;61733;50.882;4.376;2022-07-23T03:01:44;16.50;99.90
37984;DHT22;61733;50.882;4.376;2022-07-23T03:04:11;16.50;99.90
37984;DHT22;61733;50.882;4.376;2022-07-23T03:06:39;16.50;99.90
37984;DHT22;61733;50.882;4.376;2022-07-23T03:09:05;16.40;99.90
37984;DHT22;61733;50.882;4.376;2022-07-23T03:11:31;16.40;99.90
37984;DHT22;61733;50.882;4.376;2022-07-23T03:13:57;16.40;99.90
37984;DHT22;61733;50.882;4.376;2022-07-23T03:16:23;16.40;99.90
37984;DHT22;61733;50.882;4.376;2022-07-23T03:18:48;16.40;99.90
37984;DHT22;61733;50.882;4.376;2022-07-23T03:21:14;16.30;99.90
37984;DHT22;61733;50.882;4.376;2022-07-23T03:23:40;16.30;99.90
37984;DHT22;61733;50.882;4.376;2022-07-23T03:26:06;16.30;99.90
37984;DHT22;61733;50.882;4.376;2022-07-23T03:28:32;16.30;99.90
37984;DHT22;61733;50.882;4.376;2022-07-23T03:30:58;16.20;99.90
37984;DHT22;61733;50.882;4.376;2022-07-23T03:33:24;16.20;99.90
37984;DHT22;61733;50.882;4.376;2022-07-23T03:35:50;16.20;99.90
37984;DHT22;61733;50.882;4.376;2022-07-23T03:38:16;16.10;99.90
37984;DHT22;61733;50.882;4.376;2022-07-23T03:40:41;16.10;99.90
37984;DHT22;61733;50.882;4.376;2022-07-23T03:43:07;16.00;99.90
37984;DHT22;61733;50.882;4.376;2022-07-23T03:45:36;16.00;99.90
37984;DHT22;61733;50.882;4.376;2022-07-23T03:48:05;16.00;99.90
37984;DHT22;61733;50.882;4.376;2022-07-23T03:50:31;15.90;99.90
37984;DHT22;61733;50.882;4.376;2022-07-23T03:52:57;15.90;99.90
37984;DHT22;61733;50.882;4.376;2022-07-23T03:55:22;15.90;99.90
37984;DHT22;61733;50.882;4.376;2022-07-23T03:57:48;15.80;99.90
37984;DHT22;61733;50.882;4.376;2022-07-23T04:00:14;15.80;99.90
37984;DHT22;61733;50.882;4.376;2022-07-23T04:02:40;15.80;99.90
37984;DHT22;61733;50.882;4.376;2022-07-23T04:05:06;15.80;99.90
37984;DHT22;61733;50.882;4.376;2022-07-23T04:07:32;15.80;99.90
37984;DHT22;61733;50.882;4.376;2022-07-23T04:09:58;15.80;99.90
37984;DHT22;61733;50.882;4.376;2022-07-23T04:12:24;15.80;99.90
37984;DHT22;61733;50.882;4.376;2022-07-23T04:14:50;15.80;99.90
37984;DHT22;61733;50.882;4.376;2022-07-23T04:17:16;15.80;99.90
37984;DHT22;61733;50.882;4.376;2022-07-23T04:19:42;15.80;99.90
37984;DHT22;61733;50.882;4.376;2022-07-23T04:22:12;15.80;99.90
37984;DHT22;61733;50.882;4.376;2022-07-23T04:24:38;15.80;99.90
37984;DHT22;61733;50.882;4.376;2022-07-23T04:27:04;15.80;99.90
37984;DHT22;61733;50.882;4.376;2022-07-23T04:29:30;15.70;99.90
37984;DHT22;61733;50.882;4.376;2022-07-23T04:31:56;15.70;99.90
37984;DHT22;61733;50.882;4.376;2022-07-23T04:34:22;15.70;99.90
37984;DHT22;61733;50.882;4.376;2022-07-23T04:36:48;15.80;99.90
37984;DHT22;61733;50.882;4.376;2022-07-23T04:39:14;15.80;99.90
37984;DHT22;61733;50.882;4.376;2022-07-23T04:41:40;15.80;99.90
37984;DHT22;61733;50.882;4.376;2022-07-23T04:44:06;15.80;99.90
37984;DHT22;61733;50.882;4.376;2022-07-23T04:46:32;15.80;99.90
37984;DHT22;61733;50.882;4.376;2022-07-23T04:48:57;15.80;99.90
37984;DHT22;61733;50.882;4.376;2022-07-23T04:51:23;15.80;99.90
37984;DHT22;61733;50.882;4.376;2022-07-23T04:53:49;15.80;99.90
37984;DHT22;61733;50.882;4.376;2022-07-23T04:56:15;15.80;99.90
37984;DHT22;61733;50.882;4.376;2022-07-23T04:58:41;15.80;99.90
37984;DHT22;61733;50.882;4.376;2022-07-23T05:01:07;15.80;99.90
37984;DHT22;61733;50.882;4.376;2022-07-23T05:03:33;15.90;99.90
37984;DHT22;61733;50.882;4.376;2022-07-23T05:05:59;15.90;99.90
37984;DHT22;61733;50.882;4.376;2022-07-23T05:08:28;16.00;99.90
37984;DHT22;61733;50.882;4.376;2022-07-23T05:10:54;16.00;99.90
37984;DHT22;61733;50.882;4.376;2022-07-23T05:13:20;16.10;99.90
37984;DHT22;61733;50.882;4.376;2022-07-23T05:15:46;16.10;99.90
37984;DHT22;61733;50.882;4.376;2022-07-23T05:18:12;16.20;99.90
37984;DHT22;61733;50.882;4.376;2022-07-23T05:20:38;16.30;99.90
37984;DHT22;61733;50.882;4.376;2022-07-23T05:23:07;16.30;99.90
37984;DHT22;61733;50.882;4.376;2022-07-23T05:25:33;16.40;99.90
37984;DHT22;61733;50.882;4.376;2022-07-23T05:28:00;16.50;99.90
37984;DHT22;61733;50.882;4.376;2022-07-23T05:30:25;16.50;99.90
37984;DHT22;61733;50.882;4.376;2022-07-23T05:32:51;16.60;99.90
37984;DHT22;61733;50.882;4.376;2022-07-23T05:35:17;16.60;99.90
37984;DHT22;61733;50.882;4.376;2022-07-23T05:37:43;16.70;99.90
37984;DHT22;61733;50.882;4.376;2022-07-23T05:40:10;16.70;99.90
37984;DHT22;61733;50.882;4.376;2022-07-23T05:42:40;16.80;99.90
37984;DHT22;61733;50.882;4.376;2022-07-23T05:45:08;16.90;99.90
37984;DHT22;61733;50.882;4.376;2022-07-23T05:47:47;16.90;99.90
37984;DHT22;61733;50.882;4.376;2022-07-23T05:50:14;17.00;99.90
37984;DHT22;61733;50.882;4.376;2022-07-23T05:52:40;17.10;99.90
37984;DHT22;61733;50.882;4.376;2022-07-23T05:55:08;17.10;99.90
37984;DHT22;61733;50.882;4.376;2022-07-23T05:57:34;17.20;99.90
37984;DHT22;61733;50.882;4.376;2022-07-23T06:00:00;17.20;99.90
37984;DHT22;61733;50.882;4.376;2022-07-23T06:02:26;17.30;99.90
37984;DHT22;61733;50.882;4.376;2022-07-23T06:04:52;17.40;99.90
37984;DHT22;61733;50.882;4.376;2022-07-23T06:07:18;17.40;99.90
37984;DHT22;61733;50.882;4.376;2022-07-23T06:09:43;17.50;99.90
37984;DHT22;61733;50.882;4.376;2022-07-23T06:12:09;17.50;99.90
37984;DHT22;61733;50.882;4.376;2022-07-23T06:14:35;17.50;99.90
37984;DHT22;61733;50.882;4.376;2022-07-23T06:17:01;17.60;99.90
37984;DHT22;61733;50.882;4.376;2022-07-23T06:19:26;17.60;99.90
37984;DHT22;61733;50.882;4.376;2022-07-23T06:21:52;17.60;99.90
37984;DHT22;61733;50.882;4.376;2022-07-23T06:24:18;17.70;99.90
37984;DHT22;61733;50.882;4.376;2022-07-23T06:26:44;17.70;99.90
37984;DHT22;61733;50.882;4.376;2022-07-23T06:29:10;17.70;99.90
37984;DHT22;61733;50.882;4.376;2022-07-23T06:31:39;17.80;99.90
37984;DHT22;61733;50.882;4.376;2022-07-23T06:34:05;17.80;99.90
37984;DHT22;61733;50.882;4.376;2022-07-23T06:36:30;17.80;99.90
37984;DHT22;61733;50.882;4.376;2022-07-23T06:38:56;17.80;99.90
37984;DHT22;61733;50.882;4.376;2022-07-23T06:41:22;17.90;99.90
37984;DHT22;61733;50.882;4.376;2022-07-23T06:43:48;17.90;99.90
37984;DHT22;61733;50.882;4.376;2022-07-23T06:46:14;18.00;99.90
37984;DHT22;61733;50.882;4.376;2022-07-23T06:48:40;18.00;99.90
37984;DHT22;61733;50.882;4.376;2022-07-23T06:51:06;18.00;99.90
37984;DHT22;61733;50.882;4.376;2022-07-23T06:53:31;18.10;99.90
37984;DHT22;61733;50.882;4.376;2022-07-23T06:55:57;18.10;99.90
37984;DHT22;61733;50.882;4.376;2022-07-23T06:58:23;18.10;99.90
37984;DHT22;61733;50.882;4.376;2022-07-23T07:00:49;18.10;99.90
37984;DHT22;61733;50.882;4.376;2022-07-23T07:03:17;18.20;99.90
37984;DHT22;61733;50.882;4.376;2022-07-23T07:05:43;18.20;99.90
37984;DHT22;61733;50.882;4.376;2022-07-23T07:08:10;18.30;99.90
37984;DHT22;61733;50.882;4.376;2022-07-23T07:10:36;18.30;99.90
37984;DHT22;61733;50.882;4.376;2022-07-23T07:13:02;18.40;99.90
37984;DHT22;61733;50.882;4.376;2022-07-23T07:15:28;18.40;99.90
37984;DHT22;61733;50.882;4.376;2022-07-23T07:17:53;18.50;99.90
37984;DHT22;61733;50.882;4.376;2022-07-23T07:20:19;18.60;99.90
37984;DHT22;61733;50.882;4.376;2022-07-23T07:22:47;18.60;99.90
37984;DHT22;61733;50.882;4.376;2022-07-23T07:25:13;18.70;99.90
37984;DHT22;61733;50.882;4.376;2022-07-23T07:27:39;18.70;99.90
37984;DHT22;61733;50.882;4.376;2022-07-23T07:30:05;18.80;99.90
37984;DHT22;61733;50.882;4.376;2022-07-23T07:32:32;18.90;99.90
37984;DHT22;61733;50.882;4.376;2022-07-23T07:34:58;18.90;99.90
37984;DHT22;61733;50.882;4.376;2022-07-23T07:37:25;19.00;99.90
37984;DHT22;61733;50.882;4.376;2022-07-23T07:39:51;19.00;99.90
37984;DHT22;61733;50.882;4.376;2022-07-23T07:42:16;19.10;99.90
37984;DHT22;61733;50.882;4.376;2022-07-23T07:44:42;19.20;99.90
37984;DHT22;61733;50.882;4.376;2022-07-23T07:47:08;19.30;99.90
37984;DHT22;61733;50.882;4.376;2022-07-23T07:49:34;19.40;99.90
37984;DHT22;61733;50.882;4.376;2022-07-23T07:52:00;19.40;99.90
37984;DHT22;61733;50.882;4.376;2022-07-23T07:54:25;19.50;99.90
37984;DHT22;61733;50.882;4.376;2022-07-23T07:56:51;19.60;99.90
37984;DHT22;61733;50.882;4.376;2022-07-23T07:59:17;19.70;99.90
37984;DHT22;61733;50.882;4.376;2022-07-23T08:01:43;19.80;99.90
37984;DHT22;61733;50.882;4.376;2022-07-23T08:04:08;19.80;99.90
37984;DHT22;61733;50.882;4.376;2022-07-23T08:06:34;20.00;99.90
37984;DHT22;61733;50.882;4.376;2022-07-23T08:09:00;20.00;99.90
37984;DHT22;61733;50.882;4.376;2022-07-23T08:11:26;20.10;99.90
37984;DHT22;61733;50.882;4.376;2022-07-23T08:13:51;20.20;99.90
37984;DHT22;61733;50.882;4.376;2022-07-23T08:16:18;20.30;99.90
37984;DHT22;61733;50.882;4.376;2022-07-23T08:18:44;20.30;99.90
37984;DHT22;61733;50.882;4.376;2022-07-23T08:21:10;20.40;99.90
37984;DHT22;61733;50.882;4.376;2022-07-23T08:23:36;20.50;99.90
37984;DHT22;61733;50.882;4.376;2022-07-23T08:26:02;20.60;99.90
37984;DHT22;61733;50.882;4.376;2022-07-23T08:28:28;20.70;99.90
37984;DHT22;61733;50.882;4.376;2022-07-23T08:30:54;20.80;99.90
37984;DHT22;61733;50.882;4.376;2022-07-23T08:33:20;20.80;99.90
37984;DHT22;61733;50.882;4.376;2022-07-23T08:35:48;20.90;99.90
37984;DHT22;61733;50.882;4.376;2022-07-23T08:38:17;21.00;99.90
37984;DHT22;61733;50.882;4.376;2022-07-23T08:40:46;21.10;99.90
37984;DHT22;61733;50.882;4.376;2022-07-23T08:43:21;21.20;99.90
37984;DHT22;61733;50.882;4.376;2022-07-23T08:45:50;21.30;99.90
37984;DHT22;61733;50.882;4.376;2022-07-23T08:50:48;21.50;99.90
37984;DHT22;61733;50.882;4.376;2022-07-23T08:53:15;21.50;99.90
37984;DHT22;61733;50.882;4.376;2022-07-23T08:55:51;21.60;99.90
37984;DHT22;61733;50.882;4.376;2022-07-23T08:58:18;21.70;99.90
37984;DHT22;61733;50.882;4.376;2022-07-23T09:00:45;21.80;99.90
37984;DHT22;61733;50.882;4.376;2022-07-23T09:03:18;21.90;99.90
37984;DHT22;61733;50.882;4.376;2022-07-23T09:05:44;21.90;99.90
37984;DHT22;61733;50.882;4.376;2022-07-23T09:08:18;22.00;99.90
37984;DHT22;61733;50.882;4.376;2022-07-23T09:10:52;22.10;99.90
37984;DHT22;61733;50.882;4.376;2022-07-23T09:15:56;22.30;99.90
37984;DHT22;61733;50.882;4.376;2022-07-23T09:18:30;22.30;99.90
37984;DHT22;61733;50.882;4.376;2022-07-23T09:21:19;22.40;99.90
37984;DHT22;61733;50.882;4.376;2022-07-23T09:26:31;22.60;99.90
37984;DHT22;61733;50.882;4.376;2022-07-23T09:29:17;22.70;99.90
37984;DHT22;61733;50.882;4.376;2022-07-23T09:31:57;22.80;99.90
37984;DHT22;61733;50.882;4.376;2022-07-23T09:34:25;22.90;99.90
37984;DHT22;61733;50.882;4.376;2022-07-23T09:37:15;22.90;99.90
37984;DHT22;61733;50.882;4.376;2022-07-23T09:39:42;23.00;99.90
37984;DHT22;61733;50.882;4.376;2022-07-23T09:42:21;23.00;99.90
37984;DHT22;61733;50.882;4.376;2022-07-23T09:44:55;23.10;99.90
37984;DHT22;61733;50.882;4.376;2022-07-23T09:47:24;23.20;99.90
37984;DHT22;61733;50.882;4.376;2022-07-23T09:50:06;23.30;99.90
37984;DHT22;61733;50.882;4.376;2022-07-23T09:52:48;23.30;99.90
37984;DHT22;61733;50.882;4.376;2022-07-23T09:55:15;23.40;99.90
37984;DHT22;61733;50.882;4.376;2022-07-23T09:57:42;23.50;99.90
37984;DHT22;61733;50.882;4.376;2022-07-23T10:00:11;23.50;99.40
37984;DHT22;61733;50.882;4.376;2022-07-23T10:02:39;23.60;98.60
37984;DHT22;61733;50.882;4.376;2022-07-23T10:05:08;23.60;98.00
37984;DHT22;61733;50.882;4.376;2022-07-23T10:07:37;23.60;97.40
37984;DHT22;61733;50.882;4.376;2022-07-23T10:10:04;23.70;96.90
37984;DHT22;61733;50.882;4.376;2022-07-23T10:12:31;23.70;97.20
37984;DHT22;61733;50.882;4.376;2022-07-23T10:15:18;23.70;96.40
37984;DHT22;61733;50.882;4.376;2022-07-23T10:17:44;23.80;96.30
37984;DHT22;61733;50.882;4.376;2022-07-23T10:20:10;23.90;95.80
37984;DHT22;61733;50.882;4.376;2022-07-23T10:22:49;23.90;95.20
37984;DHT22;61733;50.882;4.376;2022-07-23T10:25:46;24.00;94.70
37984;DHT22;61733;50.882;4.376;2022-07-23T10:31:05;24.10;93.80
37984;DHT22;61733;50.882;4.376;2022-07-23T10:33:56;24.10;93.00
37984;DHT22;61733;50.882;4.376;2022-07-23T10:39:04;24.20;91.90
37984;DHT22;61733;50.882;4.376;2022-07-23T10:41:49;24.30;91.90
37984;DHT22;61733;50.882;4.376;2022-07-23T10:44:19;24.40;91.90
37984;DHT22;61733;50.882;4.376;2022-07-23T10:49:31;24.60;92.90
37984;DHT22;61733;50.882;4.376;2022-07-23T10:52:17;24.70;92.40
37984;DHT22;61733;50.882;4.376;2022-07-23T10:54:54;24.70;91.00
37984;DHT22;61733;50.882;4.376;2022-07-23T10:57:23;24.80;91.10
37984;DHT22;61733;50.882;4.376;2022-07-23T11:00:12;24.80;90.70
37984;DHT22;61733;50.882;4.376;2022-07-23T11:02:43;24.90;89.50
37984;DHT22;61733;50.882;4.376;2022-07-23T11:05:14;25.00;89.50
37984;DHT22;61733;50.882;4.376;2022-07-23T11:13:32;25.10;84.80
37984;DHT22;61733;50.882;4.376;2022-07-23T11:32:04;25.40;79.80
37984;DHT22;61733;50.882;4.376;2022-07-23T11:34:40;25.50;81.70
37984;DHT22;61733;50.882;4.376;2022-07-23T11:37:11;25.60;82.50
37984;DHT22;61733;50.882;4.376;2022-07-23T11:39:38;25.70;82.00
37984;DHT22;61733;50.882;4.376;2022-07-23T11:42:06;25.80;81.30
37984;DHT22;61733;50.882;4.376;2022-07-23T11:44:37;25.90;80.30
37984;DHT22;61733;50.882;4.376;2022-07-23T11:47:08;25.90;80.10
37984;DHT22;61733;50.882;4.376;2022-07-23T11:49:34;26.00;79.90
37984;DHT22;61733;50.882;4.376;2022-07-23T11:52:06;26.10;79.70
37984;DHT22;61733;50.882;4.376;2022-07-23T11:54:34;26.20;81.80
37984;DHT22;61733;50.882;4.376;2022-07-23T11:57:01;26.20;81.80
37984;DHT22;61733;50.882;4.376;2022-07-23T11:59:31;26.30;81.90
37984;DHT22;61733;50.882;4.376;2022-07-23T12:02:04;26.30;81.40
37984;DHT22;61733;50.882;4.376;2022-07-23T12:04:49;26.40;80.20
37984;DHT22;61733;50.882;4.376;2022-07-23T12:07:24;26.50;77.00
37984;DHT22;61733;50.882;4.376;2022-07-23T12:09:50;26.50;76.80
37984;DHT22;61733;50.882;4.376;2022-07-23T12:12:16;26.50;76.40
37984;DHT22;61733;50.882;4.376;2022-07-23T12:14:54;26.60;75.10
37984;DHT22;61733;50.882;4.376;2022-07-23T12:17:21;26.60;73.90
37984;DHT22;61733;50.882;4.376;2022-07-23T12:19:54;26.70;73.70
37984;DHT22;61733;50.882;4.376;2022-07-23T12:22:21;26.70;73.40
37984;DHT22;61733;50.882;4.376;2022-07-23T12:24:54;26.80;73.30
37984;DHT22;61733;50.882;4.376;2022-07-23T12:27:21;26.90;72.30
37984;DHT22;61733;50.882;4.376;2022-07-23T12:29:47;26.90;71.60
37984;DHT22;61733;50.882;4.376;2022-07-23T12:32:28;27.00;71.30
37984;DHT22;61733;50.882;4.376;2022-07-23T12:35:08;27.10;70.50
37984;DHT22;61733;50.882;4.376;2022-07-23T12:37:39;27.30;70.90
37984;DHT22;61733;50.882;4.376;2022-07-23T12:40:40;27.40;71.50
37984;DHT22;61733;50.882;4.376;2022-07-23T12:43:31;27.50;68.20
37984;DHT22;61733;50.882;4.376;2022-07-23T12:48:34;27.50;69.10
37984;DHT22;61733;50.882;4.376;2022-07-23T12:51:19;27.70;69.20
37984;DHT22;61733;50.882;4.376;2022-07-23T12:53:49;27.70;66.90
37984;DHT22;61733;50.882;4.376;2022-07-23T12:56:17;27.80;67.50
37984;DHT22;61733;50.882;4.376;2022-07-23T12:58:55;27.80;67.30
37984;DHT22;61733;50.882;4.376;2022-07-23T13:01:23;27.80;66.50
37984;DHT22;61733;50.882;4.376;2022-07-23T13:04:08;27.80;67.00
37984;DHT22;61733;50.882;4.376;2022-07-23T13:06:39;27.80;67.20
37984;DHT22;61733;50.882;4.376;2022-07-23T13:09:07;27.90;67.70
37984;DHT22;61733;50.882;4.376;2022-07-23T13:11:33;27.80;66.60
37984;DHT22;61733;50.882;4.376;2022-07-23T13:14:00;27.80;66.20
37984;DHT22;61733;50.882;4.376;2022-07-23T13:16:27;27.80;65.70
37984;DHT22;61733;50.882;4.376;2022-07-23T13:18:53;27.80;65.70
37984;DHT22;61733;50.882;4.376;2022-07-23T13:21:18;27.90;66.00
37984;DHT22;61733;50.882;4.376;2022-07-23T13:23:44;28.00;65.50
37984;DHT22;61733;50.882;4.376;2022-07-23T13:26:10;28.00;64.90
37984;DHT22;61733;50.882;4.376;2022-07-23T13:28:36;28.10;65.70
37984;DHT22;61733;50.882;4.376;2022-07-23T13:31:03;28.20;66.30
37984;DHT22;61733;50.882;4.376;2022-07-23T13:33:28;28.30;66.30
37984;DHT22;61733;50.882;4.376;2022-07-23T13:35:55;28.40;65.50
37984;DHT22;61733;50.882;4.376;2022-07-23T13:38:21;28.50;65.80
37984;DHT22;61733;50.882;4.376;2022-07-23T13:40:48;28.60;65.00
37984;DHT22;61733;50.882;4.376;2022-07-23T13:43:17;28.70;63.60
37984;DHT22;61733;50.882;4.376;2022-07-23T13:45:44;28.70;64.00
37984;DHT22;61733;50.882;4.376;2022-07-23T13:48:11;28.80;63.30
37984;DHT22;61733;50.882;4.376;2022-07-23T13:50:39;28.80;62.40
37984;DHT22;61733;50.882;4.376;2022-07-23T13:53:13;28.80;62.20
37984;DHT22;61733;50.882;4.376;2022-07-23T13:55:40;28.90;60.90
37984;DHT22;61733;50.882;4.376;2022-07-23T13:58:07;28.90;60.90
37984;DHT22;61733;50.882;4.376;2022-07-23T14:00:34;28.90;61.60
37984;DHT22;61733;50.882;4.376;2022-07-23T14:03:00;28.90;62.30
37984;DHT22;61733;50.882;4.376;2022-07-23T14:05:26;29.00;61.50
37984;DHT22;61733;50.882;4.376;2022-07-23T14:07:52;29.10;60.70
37984;DHT22;61733;50.882;4.376;2022-07-23T14:10:20;29.10;61.00
37984;DHT22;61733;50.882;4.376;2022-07-23T14:12:47;29.30;60.90
37984;DHT22;61733;50.882;4.376;2022-07-23T14:15:14;29.40;60.90
37984;DHT22;61733;50.882;4.376;2022-07-23T14:17:41;29.60;60.90
37984;DHT22;61733;50.882;4.376;2022-07-23T14:20:08;29.70;60.00
37984;DHT22;61733;50.882;4.376;2022-07-23T14:22:35;29.70;58.70
37984;DHT22;61733;50.882;4.376;2022-07-23T14:25:01;29.70;58.20
37984;DHT22;61733;50.882;4.376;2022-07-23T14:27:28;29.70;58.30
37984;DHT22;61733;50.882;4.376;2022-07-23T14:29:54;29.80;58.30
37984;DHT22;61733;50.882;4.376;2022-07-23T14:32:21;29.80;58.00
37984;DHT22;61733;50.882;4.376;2022-07-23T14:34:47;29.90;57.60
37984;DHT22;61733;50.882;4.376;2022-07-23T14:37:13;30.00;57.30
37984;DHT22;61733;50.882;4.376;2022-07-23T14:39:41;30.10;57.00
37984;DHT22;61733;50.882;4.376;2022-07-23T14:42:07;30.20;56.90
37984;DHT22;61733;50.882;4.376;2022-07-23T14:44:34;30.40;57.00
37984;DHT22;61733;50.882;4.376;2022-07-23T14:47:01;30.50;56.70
37984;DHT22;61733;50.882;4.376;2022-07-23T14:49:27;30.60;56.50
37984;DHT22;61733;50.882;4.376;2022-07-23T14:51:53;30.70;56.50
37984;DHT22;61733;50.882;4.376;2022-07-23T14:54:19;30.70;56.40
37984;DHT22;61733;50.882;4.376;2022-07-23T14:56:45;30.80;56.20
37984;DHT22;61733;50.882;4.376;2022-07-23T14:59:12;30.80;56.20
37984;DHT22;61733;50.882;4.376;2022-07-23T15:01:38;30.90;56.30
37984;DHT22;61733;50.882;4.376;2022-07-23T15:04:05;31.00;56.40
37984;DHT22;61733;50.882;4.376;2022-07-23T15:06:31;31.10;56.10
37984;DHT22;61733;50.882;4.376;2022-07-23T15:08:57;31.10;56.40
37984;DHT22;61733;50.882;4.376;2022-07-23T15:11:23;31.20;54.90
37984;DHT22;61733;50.882;4.376;2022-07-23T15:13:49;31.30;54.70
37984;DHT22;61733;50.882;4.376;2022-07-23T15:16:15;31.30;54.40
37984;DHT22;61733;50.882;4.376;2022-07-23T15:18:44;31.40;54.00
37984;DHT22;61733;50.882;4.376;2022-07-23T15:21:10;31.30;53.20
37984;DHT22;61733;50.882;4.376;2022-07-23T15:23:36;31.40;53.20
37984;DHT22;61733;50.882;4.376;2022-07-23T15:26:06;31.50;53.20
37984;DHT22;61733;50.882;4.376;2022-07-23T15:28:33;31.50;52.40
37984;DHT22;61733;50.882;4.376;2022-07-23T15:30:59;31.60;52.80
37984;DHT22;61733;50.882;4.376;2022-07-23T15:33:25;31.70;53.00
37984;DHT22;61733;50.882;4.376;2022-07-23T15:35:51;31.80;53.00
37984;DHT22;61733;50.882;4.376;2022-07-23T15:38:18;31.80;52.50
37984;DHT22;61733;50.882;4.376;2022-07-23T15:40:44;31.90;52.50
37984;DHT22;61733;50.882;4.376;2022-07-23T15:43:10;32.00;52.50
37984;DHT22;61733;50.882;4.376;2022-07-23T15:45:36;32.00;52.20
37984;DHT22;61733;50.882;4.376;2022-07-23T15:48:01;32.10;52.50
37984;DHT22;61733;50.882;4.376;2022-07-23T15:50:27;32.20;51.80
37984;DHT22;61733;50.882;4.376;2022-07-23T15:52:53;32.30;51.50
37984;DHT22;61733;50.882;4.376;2022-07-23T15:55:19;32.40;51.40
37984;DHT22;61733;50.882;4.376;2022-07-23T15:57:45;32.60;51.30
37984;DHT22;61733;50.882;4.376;2022-07-23T16:00:11;32.70;51.00
37984;DHT22;61733;50.882;4.376;2022-07-23T16:02:37;32.80;50.80
37984;DHT22;61733;50.882;4.376;2022-07-23T16:05:03;32.80;50.20
37984;DHT22;61733;50.882;4.376;2022-07-23T16:07:48;32.90;49.80
37984;DHT22;61733;50.882;4.376;2022-07-23T16:10:14;33.00;49.80
37984;DHT22;61733;50.882;4.376;2022-07-23T16:12:40;33.10;49.30
37984;DHT22;61733;50.882;4.376;2022-07-23T16:15:06;33.10;49.00